createdAt,value
2023-02-11T00:00:09.202Z,37.47
2023-02-11T00:01:34.203Z,35.80
2023-02-11T00:02:56.773Z,33.45
2023-02-11T00:04:20.233Z,44.95
2023-02-11T00:05:42.716Z,35.67
2023-02-11T00:07:06.162Z,33.67
2023-02-11T00:08:31.284Z,32.38
2023-02-11T00:09:53.821Z,40.70
2023-02-11T00:11:20.258Z,33.05
2023-02-11T00:12:43.689Z,37.67
2023-02-11T00:14:08.830Z,33.00
2023-02-11T00:15:32.285Z,39.78
2023-02-11T00:16:55.800Z,34.60
2023-02-11T00:18:19.434Z,34.33
2023-02-11T00:19:42.920Z,40.55
2023-02-11T00:21:09.066Z,39.80
2023-02-11T00:22:32.959Z,33.90
2023-02-11T00:23:58.585Z,41.00
2023-02-11T00:25:22.234Z,37.55
2023-02-11T00:26:47.012Z,41.42
2023-02-11T00:28:10.708Z,36.38
2023-02-11T00:29:34.223Z,40.08
2023-02-11T00:30:58.496Z,35.00
2023-02-11T00:32:20.966Z,34.50
2023-02-11T00:33:44.835Z,41.72
2023-02-11T00:35:08.974Z,39.25
2023-02-11T00:36:32.727Z,35.53
2023-02-11T00:37:55.482Z,35.33
2023-02-11T00:39:18.925Z,34.35
2023-02-11T00:40:42.391Z,37.17
2023-02-11T00:42:08.917Z,40.20
2023-02-11T00:43:32.379Z,36.17
2023-02-11T00:44:55.780Z,36.83
2023-02-11T00:46:19.272Z,38.13
2023-02-11T00:47:43.566Z,32.35
2023-02-11T00:49:07.028Z,39.03
2023-02-11T00:50:29.531Z,31.20
2023-02-11T00:51:53.014Z,35.10
2023-02-11T00:53:15.500Z,38.17
2023-02-11T00:54:38.952Z,31.60
2023-02-11T00:56:01.607Z,37.03
2023-02-11T00:57:26.435Z,36.40
2023-02-11T00:58:50.008Z,34.20
2023-02-11T01:00:19.448Z,36.47
2023-02-11T01:01:41.929Z,34.53
2023-02-11T01:03:05.419Z,31.63
2023-02-11T01:04:29.036Z,33.83
2023-02-11T01:05:51.961Z,34.33
2023-02-11T01:07:15.551Z,32.05
2023-02-11T01:08:38.155Z,35.03
2023-02-11T01:10:01.715Z,31.13
2023-02-11T01:11:24.346Z,43.95
2023-02-11T01:12:49.183Z,33.60
2023-02-11T01:14:12.628Z,35.25
2023-02-11T01:15:36.770Z,34.15
2023-02-11T01:17:00.253Z,33.70
2023-02-11T01:18:22.699Z,31.65
2023-02-11T01:19:46.178Z,32.55
2023-02-11T01:21:11.259Z,40.53
2023-02-11T01:22:37.372Z,36.85
2023-02-11T01:24:01.022Z,31.02
2023-02-11T01:25:23.455Z,34.25
2023-02-11T01:26:47.063Z,28.92
2023-02-11T01:28:18.460Z,37.15
2023-02-11T01:29:41.952Z,33.92
2023-02-11T01:31:06.220Z,30.23
2023-02-11T01:32:28.761Z,36.88
2023-02-11T01:33:52.182Z,31.92
2023-02-11T01:35:14.621Z,31.90
2023-02-11T01:36:38.120Z,31.80
2023-02-11T01:38:01.591Z,32.97
2023-02-11T01:39:25.043Z,33.17
2023-02-11T01:40:49.828Z,30.27
2023-02-11T01:42:14.089Z,28.73
2023-02-11T01:43:41.849Z,34.13
2023-02-11T01:45:59.220Z,25.17
2023-02-11T01:47:23.202Z,28.35
2023-02-11T01:48:50.143Z,28.65
2023-02-11T01:50:13.619Z,31.67
2023-02-11T01:51:38.969Z,31.27
2023-02-11T01:53:22.880Z,32.78
2023-02-11T01:55:06.080Z,32.13
2023-02-11T01:56:47.482Z,31.00
2023-02-11T01:58:10.873Z,29.52
2023-02-11T01:59:38.821Z,26.58
2023-02-11T02:01:03.419Z,30.27
2023-02-11T02:02:32.405Z,31.92
2023-02-11T02:03:57.807Z,31.17
2023-02-11T02:05:25.642Z,33.33
2023-02-11T02:06:52.227Z,33.20
2023-02-11T02:08:19.025Z,27.25
2023-02-11T02:09:46.776Z,32.35
2023-02-11T02:11:10.744Z,28.98
2023-02-11T02:12:34.169Z,33.03
2023-02-11T02:13:56.623Z,30.10
2023-02-11T02:15:24.027Z,30.70
2023-02-11T02:16:46.953Z,29.85
2023-02-11T02:18:25.659Z,32.05
2023-02-11T02:20:16.248Z,30.67
2023-02-11T02:22:07.260Z,40.25
2023-02-11T02:23:36.236Z,30.02
2023-02-11T02:25:03.589Z,31.38
2023-02-11T02:27:08.632Z,32.42
2023-02-11T02:29:10.959Z,37.85
2023-02-11T02:31:01.903Z,32.60
2023-02-11T02:32:42.317Z,31.73
2023-02-11T02:34:08.791Z,29.17
2023-02-11T02:35:36.001Z,27.77
2023-02-11T02:37:05.565Z,31.95
2023-02-11T02:38:32.003Z,32.85
2023-02-11T02:39:55.621Z,32.97
2023-02-11T02:41:21.285Z,35.92
2023-02-11T02:42:44.791Z,34.15
2023-02-11T02:44:09.802Z,33.63
2023-02-11T02:45:32.781Z,35.50
2023-02-11T02:46:59.683Z,32.72
2023-02-11T02:48:31.844Z,31.02
2023-02-11T02:49:55.362Z,33.38
2023-02-11T02:51:44.199Z,33.90
2023-02-11T02:53:18.559Z,35.95
2023-02-11T02:55:22.083Z,35.95
2023-02-11T02:56:48.635Z,30.38
2023-02-11T02:58:30.272Z,40.15
2023-02-11T03:00:07.427Z,37.42
2023-02-11T03:01:38.686Z,28.92
2023-02-11T03:03:12.059Z,35.30
2023-02-11T03:04:42.223Z,33.13
2023-02-11T03:06:08.269Z,44.03
2023-02-11T03:07:39.028Z,35.17
2023-02-11T03:09:09.706Z,32.38
2023-02-11T03:10:36.514Z,35.47
2023-02-11T03:12:29.017Z,36.17
2023-02-11T03:13:51.925Z,31.42
2023-02-11T03:15:15.906Z,33.58
2023-02-11T03:16:39.340Z,36.22
2023-02-11T03:18:03.955Z,34.38
2023-02-11T03:19:30.789Z,28.80
2023-02-11T03:20:56.334Z,36.35
2023-02-11T03:22:23.518Z,31.10
2023-02-11T03:23:51.724Z,32.22
2023-02-11T03:25:15.489Z,35.28
2023-02-11T03:26:39.546Z,37.35
2023-02-11T03:28:08.143Z,37.03
2023-02-11T03:29:36.009Z,37.50
2023-02-11T03:31:07.882Z,34.67
2023-02-11T03:32:34.976Z,37.78
2023-02-11T03:34:04.580Z,34.13
2023-02-11T03:35:29.795Z,41.63
2023-02-11T03:36:57.290Z,32.58
2023-02-11T03:38:23.473Z,34.50
2023-02-11T03:39:49.143Z,36.42
2023-02-11T03:41:12.322Z,36.60
2023-02-11T03:42:38.148Z,42.17
2023-02-11T03:44:01.609Z,38.67
2023-02-11T03:45:26.590Z,35.35
2023-02-11T03:46:50.719Z,38.97
2023-02-11T03:48:17.550Z,37.45
2023-02-11T03:49:41.427Z,32.42
2023-02-11T03:51:18.023Z,32.88
2023-02-11T03:52:42.987Z,32.45
2023-02-11T03:54:07.556Z,35.85
2023-02-11T03:55:31.888Z,38.67
2023-02-11T03:56:56.662Z,32.88
2023-02-11T03:58:20.265Z,33.72
2023-02-11T03:59:55.021Z,38.25
2023-02-11T04:01:18.629Z,38.55
2023-02-11T04:02:43.074Z,34.60
2023-02-11T04:04:06.829Z,33.83
2023-02-11T04:05:30.418Z,40.05
2023-02-11T04:06:53.844Z,38.28
2023-02-11T04:08:19.531Z,33.50
2023-02-11T04:09:42.009Z,36.78
2023-02-11T04:11:05.548Z,36.30
2023-02-11T04:12:29.023Z,40.28
2023-02-11T04:13:52.471Z,34.83
2023-02-11T04:15:15.936Z,36.45
2023-02-11T04:16:38.374Z,36.92
2023-02-11T04:18:02.008Z,36.92
2023-02-11T04:19:25.473Z,37.45
2023-02-11T04:20:49.025Z,38.05
2023-02-11T04:22:11.513Z,38.70
2023-02-11T04:23:36.465Z,37.10
2023-02-11T04:24:59.143Z,38.92
2023-02-11T04:26:22.580Z,38.70
2023-02-11T04:27:44.999Z,35.58
2023-02-11T04:29:08.555Z,42.70
2023-02-11T04:30:31.076Z,43.17
2023-02-11T04:31:54.653Z,41.75
2023-02-11T04:33:17.228Z,40.05
2023-02-11T04:34:40.839Z,44.08
2023-02-11T04:36:03.605Z,37.13
2023-02-11T04:37:27.094Z,36.83
2023-02-11T04:38:50.995Z,38.92
2023-02-11T04:40:14.438Z,37.72
2023-02-11T04:41:39.482Z,43.90
2023-02-11T04:43:02.913Z,35.50
2023-02-11T04:44:26.488Z,45.28
2023-02-11T04:45:49.216Z,35.35
2023-02-11T04:47:16.033Z,34.15
2023-02-11T04:48:39.463Z,42.67
2023-02-11T04:50:01.921Z,41.15
2023-02-11T04:51:25.525Z,34.33
2023-02-11T04:52:54.227Z,43.67
2023-02-11T04:54:19.980Z,43.13
2023-02-11T04:55:42.838Z,41.20
2023-02-11T04:57:06.260Z,39.75
2023-02-11T04:58:29.504Z,42.35
2023-02-11T04:59:52.900Z,40.70
2023-02-11T05:01:17.672Z,40.97
2023-02-11T05:02:40.125Z,39.35
2023-02-11T05:04:03.608Z,37.70
2023-02-11T05:05:27.092Z,41.25
2023-02-11T05:06:49.596Z,42.88
2023-02-11T05:08:13.435Z,42.47
2023-02-11T05:09:37.289Z,38.00
2023-02-11T05:11:02.145Z,47.22
2023-02-11T05:12:25.657Z,37.15
2023-02-11T05:13:48.322Z,40.13
2023-02-11T05:15:11.874Z,33.13
2023-02-11T05:16:35.704Z,44.75
2023-02-11T05:17:58.527Z,38.78
2023-02-11T05:19:22.041Z,39.35
2023-02-11T05:20:44.876Z,42.67
2023-02-11T05:22:08.346Z,36.53
2023-02-11T05:23:30.737Z,43.65
2023-02-11T05:24:55.521Z,37.03
2023-02-11T05:26:19.497Z,43.38
2023-02-11T05:27:41.971Z,35.60
2023-02-11T05:29:05.452Z,45.30
2023-02-11T05:30:29.014Z,42.17
2023-02-11T05:31:51.534Z,42.65
2023-02-11T05:33:14.957Z,42.85
2023-02-11T05:34:38.520Z,45.15
2023-02-11T05:36:01.284Z,46.15
2023-02-11T05:37:24.814Z,50.17
2023-02-11T05:38:48.368Z,42.33
2023-02-11T05:40:13.622Z,38.42
2023-02-11T05:41:38.147Z,37.35
2023-02-11T05:43:01.689Z,40.25
2023-02-11T05:44:24.227Z,43.55
2023-02-11T05:45:47.693Z,41.05
2023-02-11T05:47:11.222Z,45.05
2023-02-11T05:48:36.296Z,35.78
2023-02-11T05:50:28.739Z,46.45
2023-02-11T05:51:52.200Z,46.10
2023-02-11T05:53:14.671Z,46.55
2023-02-11T05:54:40.555Z,40.83
2023-02-11T05:56:05.943Z,41.88
2023-02-11T05:57:29.370Z,42.45
2023-02-11T05:58:51.764Z,40.58
2023-02-11T06:00:16.426Z,44.45
2023-02-11T06:01:39.805Z,44.45
2023-02-11T06:03:04.367Z,42.17
2023-02-11T06:04:26.793Z,44.00
2023-02-11T06:05:50.883Z,43.83
2023-02-11T06:07:14.887Z,43.03
2023-02-11T06:08:39.191Z,42.10
2023-02-11T06:10:02.939Z,43.53
2023-02-11T06:11:26.937Z,46.90
2023-02-11T06:12:50.680Z,43.50
2023-02-11T06:14:14.313Z,48.42
2023-02-11T06:15:37.812Z,52.90
2023-02-11T06:17:00.348Z,44.67
2023-02-11T06:18:23.739Z,42.33
2023-02-11T06:19:46.344Z,42.72
2023-02-11T06:21:11.096Z,36.15
2023-02-11T06:22:34.938Z,48.90
2023-02-11T06:23:58.651Z,42.80
2023-02-11T06:25:21.291Z,42.60
2023-02-11T06:26:46.121Z,42.95
2023-02-11T06:28:10.364Z,48.97
2023-02-11T06:29:34.051Z,42.10
2023-02-11T06:30:56.715Z,44.85
2023-02-11T06:32:42.320Z,46.47
2023-02-11T06:34:05.100Z,43.45
2023-02-11T06:35:28.518Z,43.90
2023-02-11T06:36:51.107Z,39.08
2023-02-11T06:38:14.643Z,42.47
2023-02-11T06:39:39.155Z,46.78
2023-02-11T06:41:02.649Z,46.08
2023-02-11T06:42:26.651Z,39.45
2023-02-11T06:43:50.749Z,52.80
2023-02-11T06:45:14.444Z,46.50
2023-02-11T06:46:37.970Z,49.15
2023-02-11T06:48:01.598Z,38.83
2023-02-11T06:49:24.071Z,39.17
2023-02-11T06:50:47.952Z,39.88
2023-02-11T06:52:11.421Z,46.03
2023-02-11T06:53:37.773Z,38.13
2023-02-11T06:55:01.326Z,48.42
2023-02-11T06:56:34.405Z,49.83
2023-02-11T06:57:59.208Z,50.90
2023-02-11T06:59:22.773Z,47.35
2023-02-11T07:00:46.225Z,47.72
2023-02-11T07:02:11.337Z,43.13
2023-02-11T07:03:36.239Z,45.38
2023-02-11T07:04:58.730Z,50.75
2023-02-11T07:06:24.801Z,48.53
2023-02-11T07:07:48.705Z,44.80
2023-02-11T07:09:12.162Z,41.72
2023-02-11T07:10:35.851Z,47.45
2023-02-11T07:11:59.327Z,44.90
2023-02-11T07:13:24.086Z,44.92
2023-02-11T07:14:46.737Z,45.40
2023-02-11T07:16:12.263Z,49.05
2023-02-11T07:17:36.547Z,47.22
2023-02-11T07:19:00.274Z,45.78
2023-02-11T07:20:23.676Z,37.78
2023-02-11T07:21:48.589Z,48.53
2023-02-11T07:23:12.047Z,42.97
2023-02-11T07:24:34.563Z,53.85
2023-02-11T07:25:59.903Z,55.95
2023-02-11T07:27:23.284Z,47.08
2023-02-11T07:28:47.333Z,48.42
2023-02-11T07:30:13.167Z,47.92
2023-02-11T07:31:36.661Z,49.38
2023-02-11T07:33:00.206Z,43.60
2023-02-11T07:34:22.852Z,46.17
2023-02-11T07:35:46.364Z,43.75
2023-02-11T07:37:10.877Z,41.38
2023-02-11T07:38:33.514Z,42.72
2023-02-11T07:39:56.892Z,48.72
2023-02-11T07:41:21.998Z,55.35
2023-02-11T07:42:44.502Z,41.63
2023-02-11T07:44:09.693Z,52.08
2023-02-11T07:45:33.230Z,46.83
2023-02-11T07:46:56.685Z,49.25
2023-02-11T07:48:20.233Z,52.78
2023-02-11T07:49:43.643Z,43.22
2023-02-11T07:51:07.714Z,47.55
2023-02-11T07:52:31.604Z,43.22
2023-02-11T07:53:55.612Z,47.97
2023-02-11T07:55:19.126Z,43.85
2023-02-11T07:56:42.644Z,52.70
2023-02-11T07:58:06.283Z,43.75
2023-02-11T07:59:31.215Z,49.00
2023-02-11T08:00:54.791Z,48.70
2023-02-11T08:02:18.361Z,59.67
2023-02-11T08:03:45.813Z,46.20
2023-02-11T08:05:09.583Z,38.55
2023-02-11T08:06:34.521Z,47.28
2023-02-11T08:07:58.018Z,45.95
2023-02-11T08:09:21.536Z,41.42
2023-02-11T08:10:43.976Z,40.78
2023-02-11T08:12:07.609Z,39.13
2023-02-11T08:13:31.027Z,45.10
2023-02-11T08:14:56.333Z,45.80
2023-02-11T08:16:20.671Z,45.95
2023-02-11T08:17:44.147Z,41.58
2023-02-11T08:19:09.548Z,45.50
2023-02-11T08:20:32.145Z,42.78
2023-02-11T08:21:57.444Z,42.13
2023-02-11T08:23:19.877Z,39.90
2023-02-11T08:24:43.584Z,37.03
2023-02-11T08:26:08.221Z,47.40
2023-02-11T08:27:31.716Z,42.65
2023-02-11T08:28:56.821Z,49.78
2023-02-11T08:30:21.792Z,48.40
2023-02-11T08:31:47.800Z,42.75
2023-02-11T08:33:11.289Z,45.17
2023-02-11T08:34:34.714Z,40.92
2023-02-11T08:35:58.335Z,40.60
2023-02-11T08:37:23.577Z,44.95
2023-02-11T08:38:47.919Z,44.03
2023-02-11T08:40:11.981Z,48.80
2023-02-11T08:41:36.307Z,37.15
2023-02-11T08:42:59.803Z,41.90
2023-02-11T08:44:23.870Z,42.08
2023-02-11T08:45:49.218Z,44.25
2023-02-11T08:47:12.952Z,42.25
2023-02-11T08:48:38.693Z,44.13
2023-02-11T08:50:02.102Z,40.85
2023-02-11T08:51:28.226Z,42.08
2023-02-11T08:52:52.501Z,47.03
2023-02-11T08:54:16.456Z,44.13
2023-02-11T08:55:40.033Z,35.45
2023-02-11T08:57:03.534Z,41.08
2023-02-11T08:58:26.929Z,38.00
2023-02-11T08:59:51.134Z,42.30
2023-02-11T09:01:17.776Z,46.72
2023-02-11T09:02:41.308Z,41.83
2023-02-11T09:04:04.946Z,41.35
2023-02-11T09:05:28.450Z,47.08
2023-02-11T09:06:51.979Z,41.20
2023-02-11T09:08:15.822Z,41.30
2023-02-11T09:09:39.572Z,35.90
2023-02-11T09:11:03.882Z,43.47
2023-02-11T09:12:27.481Z,38.70
2023-02-11T09:13:53.326Z,38.78
2023-02-11T09:15:17.786Z,35.83
2023-02-11T09:16:43.611Z,37.92
2023-02-11T09:18:07.551Z,42.28
2023-02-11T09:19:30.984Z,40.55
2023-02-11T09:20:54.572Z,40.47
2023-02-11T09:22:18.218Z,42.20
2023-02-11T09:23:43.680Z,44.25
2023-02-11T09:25:07.591Z,35.20
2023-02-11T09:26:32.650Z,38.08
2023-02-11T09:27:56.175Z,43.97
2023-02-11T09:29:19.650Z,40.25
2023-02-11T09:30:43.238Z,41.08
2023-02-11T09:32:09.911Z,39.47
2023-02-11T09:33:33.685Z,39.85
2023-02-11T09:34:57.170Z,35.65
2023-02-11T09:36:22.115Z,37.40
2023-02-11T09:37:45.546Z,41.63
2023-02-11T09:39:11.073Z,37.70
2023-02-11T09:40:35.627Z,40.08
2023-02-11T09:42:38.042Z,46.30
2023-02-11T09:44:04.810Z,36.58
2023-02-11T09:45:31.165Z,39.33
2023-02-11T09:46:56.247Z,33.45
2023-02-11T09:48:22.963Z,39.20
2023-02-11T09:49:48.735Z,38.83
2023-02-11T09:51:21.935Z,39.65
2023-02-11T09:52:48.273Z,36.80
2023-02-11T09:54:18.043Z,34.63
2023-02-11T09:55:44.362Z,36.45
2023-02-11T09:57:23.130Z,45.35
2023-02-11T09:58:50.336Z,35.05
2023-02-11T10:00:23.882Z,32.60
2023-02-11T10:01:50.152Z,40.20
2023-02-11T10:03:39.019Z,38.72
2023-02-11T10:05:17.010Z,43.75
2023-02-11T10:06:42.878Z,40.10
2023-02-11T10:08:16.582Z,44.28
2023-02-11T10:09:51.764Z,38.70
2023-02-11T10:11:30.936Z,33.08
2023-02-11T10:13:14.138Z,34.38
2023-02-11T10:15:05.668Z,42.13
2023-02-11T10:16:42.292Z,30.02
2023-02-11T10:18:39.144Z,32.53
2023-02-11T10:20:17.146Z,33.55
2023-02-11T10:21:47.855Z,37.70
2023-02-11T10:23:16.920Z,36.17
2023-02-11T10:24:40.804Z,36.50
2023-02-11T10:26:04.829Z,31.20
2023-02-11T10:27:32.304Z,36.03
2023-02-11T10:28:57.895Z,35.05
2023-02-11T10:30:25.782Z,31.67
2023-02-11T10:31:49.712Z,31.60
2023-02-11T10:33:19.641Z,34.30
2023-02-11T10:34:44.590Z,36.60
2023-02-11T10:36:08.870Z,39.60
2023-02-11T10:37:32.565Z,35.33
2023-02-11T10:38:56.323Z,38.67
2023-02-11T10:40:21.603Z,41.08
2023-02-11T10:41:47.091Z,35.35
2023-02-11T10:43:15.342Z,33.67
2023-02-11T10:44:40.622Z,31.15
2023-02-11T10:46:05.309Z,33.17
2023-02-11T10:47:33.810Z,35.47
2023-02-11T10:48:58.052Z,33.03
2023-02-11T10:50:25.163Z,35.42
2023-02-11T10:51:48.659Z,34.05
2023-02-11T10:53:20.511Z,34.78
2023-02-11T10:54:49.520Z,28.58
2023-02-11T10:56:15.648Z,35.13
2023-02-11T10:57:42.805Z,33.95
2023-02-11T10:59:08.668Z,36.15
2023-02-11T11:00:37.958Z,29.83
2023-02-11T11:02:02.499Z,33.10
2023-02-11T11:03:27.589Z,37.58
2023-02-11T11:04:51.059Z,31.58
2023-02-11T11:06:16.793Z,31.67
2023-02-11T11:07:40.256Z,30.10
2023-02-11T11:09:04.596Z,27.80
2023-02-11T11:10:31.345Z,30.35
2023-02-11T11:11:54.964Z,27.77
2023-02-11T11:13:29.998Z,31.50
2023-02-11T11:14:56.775Z,27.08
2023-02-11T11:16:24.020Z,28.92
2023-02-11T11:17:48.046Z,28.33
2023-02-11T11:19:22.500Z,31.75
2023-02-11T11:20:54.801Z,30.90
2023-02-11T11:22:24.055Z,28.73
2023-02-11T11:23:58.022Z,29.50
2023-02-11T11:25:26.501Z,27.67
2023-02-11T11:26:52.392Z,29.63
2023-02-11T11:28:23.649Z,26.48
2023-02-11T11:29:50.290Z,32.50
2023-02-11T11:31:19.396Z,30.58
2023-02-11T11:32:43.959Z,28.38
2023-02-11T11:34:22.867Z,29.80
2023-02-11T11:35:59.493Z,36.40
2023-02-11T11:37:26.046Z,25.48
2023-02-11T11:38:53.854Z,26.30
2023-02-11T11:40:52.696Z,27.50
2023-02-11T11:42:28.339Z,25.13
2023-02-11T11:43:57.661Z,26.10
2023-02-11T11:45:26.688Z,27.20
2023-02-11T11:46:54.526Z,27.38
2023-02-11T11:48:22.779Z,26.63
2023-02-11T11:49:51.775Z,31.67
2023-02-11T11:51:15.398Z,20.85
2023-02-11T11:52:45.498Z,26.58
2023-02-11T11:54:13.577Z,26.00
2023-02-11T11:55:41.617Z,24.20
2023-02-11T11:57:11.752Z,25.25
2023-02-11T11:58:35.853Z,25.02
2023-02-11T11:59:59.314Z,25.52
2023-02-11T12:01:34.085Z,29.48
2023-02-11T12:03:22.630Z,29.42
2023-02-11T12:05:04.921Z,24.35
2023-02-11T12:06:35.735Z,19.50
2023-02-11T12:08:09.625Z,19.52
2023-02-11T12:09:38.599Z,29.98
2023-02-11T12:11:08.981Z,27.40
2023-02-11T12:12:40.000Z,26.33
2023-02-11T12:14:13.504Z,23.15
2023-02-11T12:15:42.446Z,23.13
2023-02-11T12:17:16.172Z,23.08
2023-02-11T12:19:03.403Z,25.70
2023-02-11T12:20:33.998Z,20.98
2023-02-11T12:22:04.890Z,27.80
2023-02-11T12:23:39.978Z,27.85
2023-02-11T12:25:17.873Z,17.73
2023-02-11T12:26:46.277Z,31.05
2023-02-11T12:28:19.317Z,24.65
2023-02-11T12:29:51.526Z,20.05
2023-02-11T12:31:26.614Z,25.60
2023-02-11T12:32:58.930Z,24.58
2023-02-11T12:34:38.048Z,28.98
2023-02-11T12:36:07.107Z,21.75
2023-02-11T12:37:41.392Z,23.45
2023-02-11T12:39:15.239Z,22.52
2023-02-11T12:40:45.674Z,18.20
2023-02-11T12:42:43.530Z,23.65
2023-02-11T12:44:08.330Z,18.30
2023-02-11T12:46:04.195Z,20.80
2023-02-11T12:47:31.806Z,19.45
2023-02-11T12:49:21.766Z,19.63
2023-02-11T12:50:53.764Z,22.38
2023-02-11T12:52:29.498Z,19.75
2023-02-11T12:54:18.871Z,20.25
2023-02-11T12:55:45.686Z,23.00
2023-02-11T12:57:14.812Z,19.67
2023-02-11T12:58:45.282Z,20.55
2023-02-11T13:00:16.440Z,19.85
2023-02-11T13:01:42.038Z,23.77
2023-02-11T13:03:08.424Z,26.00
2023-02-11T13:04:36.670Z,17.05
2023-02-11T13:06:03.190Z,19.75
2023-02-11T13:07:31.179Z,21.85
2023-02-11T13:08:58.508Z,22.73
2023-02-11T13:10:31.544Z,18.98
2023-02-11T13:11:58.157Z,19.67
2023-02-11T13:13:23.669Z,19.55
2023-02-11T13:14:47.880Z,19.83
2023-02-11T13:16:21.301Z,20.92
2023-02-11T13:17:50.871Z,18.55
2023-02-11T13:19:22.254Z,16.98
2023-02-11T13:20:49.945Z,18.42
2023-02-11T13:22:16.897Z,19.67
2023-02-11T13:23:44.860Z,18.75
2023-02-11T13:25:16.195Z,21.95
2023-02-11T13:26:46.805Z,18.92
2023-02-11T13:28:22.000Z,17.35
2023-02-11T13:30:28.318Z,19.02
2023-02-11T13:31:55.987Z,21.70
2023-02-11T13:33:34.470Z,20.02
2023-02-11T13:34:59.872Z,16.77
2023-02-11T13:36:27.662Z,18.05
2023-02-11T13:37:51.143Z,18.65
2023-02-11T13:39:22.148Z,16.63
2023-02-11T13:40:46.012Z,18.13
2023-02-11T13:42:18.699Z,16.05
2023-02-11T13:43:41.663Z,19.52
2023-02-11T13:45:07.007Z,16.85
2023-02-11T13:46:53.893Z,20.75
2023-02-11T13:48:21.187Z,18.95
2023-02-11T13:49:52.138Z,15.45
2023-02-11T13:51:17.977Z,17.27
2023-02-11T13:53:09.998Z,21.35
2023-02-11T13:54:35.952Z,22.45
2023-02-11T13:56:09.598Z,25.10
2023-02-11T13:57:41.943Z,19.10
2023-02-11T13:59:05.975Z,22.10
2023-02-11T14:00:47.249Z,22.83
2023-02-11T14:02:45.379Z,20.10
2023-02-11T14:04:41.277Z,18.23
2023-02-11T14:06:35.371Z,19.65
2023-02-11T14:08:46.432Z,17.35
2023-02-11T14:10:51.804Z,14.75
2023-02-11T14:12:26.129Z,22.60
2023-02-11T14:14:19.103Z,19.08
2023-02-11T14:15:42.667Z,17.50
2023-02-11T14:17:34.772Z,18.52
2023-02-11T14:19:02.999Z,15.45
2023-02-11T14:20:44.083Z,18.52
2023-02-11T14:22:13.509Z,15.35
2023-02-11T14:23:38.316Z,14.38
2023-02-11T14:25:02.646Z,18.15
2023-02-11T14:26:35.270Z,17.95
2023-02-11T14:28:02.298Z,22.50
2023-02-11T14:29:29.292Z,16.00
2023-02-11T14:30:58.583Z,18.80
2023-02-11T14:32:33.542Z,19.23
2023-02-11T14:34:25.965Z,14.63
2023-02-11T14:36:02.856Z,16.85
2023-02-11T14:37:35.741Z,26.73
2023-02-11T14:39:03.642Z,16.88
2023-02-11T14:40:30.836Z,15.30
2023-02-11T14:41:57.474Z,18.30
2023-02-11T14:43:24.327Z,13.75
2023-02-11T14:44:48.760Z,12.57
2023-02-11T14:46:12.250Z,14.30
2023-02-11T14:47:41.540Z,16.50
2023-02-11T14:49:06.633Z,14.23
2023-02-11T14:50:35.087Z,15.45
2023-02-11T14:52:03.074Z,13.40
2023-02-11T14:53:27.584Z,20.95
2023-02-11T14:54:52.373Z,15.52
2023-02-11T14:56:20.555Z,11.52
2023-02-11T14:57:45.858Z,15.95
2023-02-11T14:59:21.124Z,15.88
2023-02-11T15:00:54.145Z,13.35
2023-02-11T15:02:26.234Z,13.02
2023-02-11T15:03:50.833Z,16.40
2023-02-11T15:05:26.083Z,17.15
2023-02-11T15:06:50.411Z,16.23
2023-02-11T15:08:16.730Z,16.85
2023-02-11T15:09:43.469Z,14.73
2023-02-11T15:11:12.425Z,12.30
2023-02-11T15:12:36.073Z,13.77
2023-02-11T15:14:09.053Z,13.65
2023-02-11T15:15:34.600Z,15.05
2023-02-11T15:16:59.923Z,12.90
2023-02-11T15:18:25.439Z,13.43
2023-02-11T15:19:50.887Z,18.25
2023-02-11T15:21:15.110Z,15.35
2023-02-11T15:22:39.436Z,20.63
2023-02-11T15:24:06.055Z,20.55
2023-02-11T15:25:31.742Z,12.15
2023-02-11T15:27:00.824Z,11.85
2023-02-11T15:28:29.301Z,14.45
2023-02-11T15:29:54.210Z,9.90
2023-02-11T15:31:23.214Z,12.15
2023-02-11T15:32:46.690Z,15.25
2023-02-11T15:34:10.484Z,13.70
2023-02-11T15:35:36.513Z,10.65
2023-02-11T15:36:59.983Z,11.32
2023-02-11T15:38:23.710Z,16.65
2023-02-11T15:39:47.415Z,12.80
2023-02-11T15:41:35.109Z,13.70
2023-02-11T15:43:00.030Z,15.73
2023-02-11T15:44:31.159Z,12.30
2023-02-11T15:46:00.567Z,10.55
2023-02-11T15:47:24.379Z,14.48
2023-02-11T15:48:50.146Z,11.07
2023-02-11T15:50:22.174Z,14.00
2023-02-11T15:51:48.901Z,12.95
2023-02-11T15:53:25.032Z,10.52
2023-02-11T15:54:49.404Z,14.00
2023-02-11T15:56:15.732Z,14.80
2023-02-11T15:57:39.194Z,11.02
2023-02-11T15:59:12.900Z,9.63
2023-02-11T16:00:38.312Z,11.65
2023-02-11T16:02:09.014Z,18.65
2023-02-11T16:03:33.353Z,9.38
2023-02-11T16:04:58.881Z,12.00
2023-02-11T16:06:25.029Z,13.20
2023-02-11T16:07:50.370Z,11.13
2023-02-11T16:09:27.082Z,13.20
2023-02-11T16:10:58.518Z,8.75
2023-02-11T16:12:27.016Z,10.18
2023-02-11T16:13:50.440Z,13.38
2023-02-11T16:15:43.397Z,15.75
2023-02-11T16:17:10.505Z,13.75
2023-02-11T16:18:39.260Z,11.98
2023-02-11T16:20:03.352Z,10.18
2023-02-11T16:21:33.958Z,15.43
2023-02-11T16:22:57.533Z,11.65
2023-02-11T16:24:23.369Z,13.00
2023-02-11T16:25:45.889Z,14.98
2023-02-11T16:27:18.089Z,20.02
2023-02-11T16:28:41.711Z,10.40
2023-02-11T16:30:05.712Z,13.60
2023-02-11T16:31:34.746Z,13.57
2023-02-11T16:32:59.663Z,11.23
2023-02-11T16:34:24.521Z,10.18
2023-02-11T16:35:48.748Z,12.23
2023-02-11T16:37:12.337Z,14.35
2023-02-11T16:38:35.717Z,9.13
2023-02-11T16:39:59.218Z,9.00
2023-02-11T16:41:22.981Z,9.23
2023-02-11T16:42:46.362Z,11.02
2023-02-11T16:44:09.955Z,13.10
2023-02-11T16:45:33.468Z,9.07
2023-02-11T16:46:57.753Z,8.80
2023-02-11T16:48:21.673Z,8.65
2023-02-11T16:49:45.112Z,8.18
2023-02-11T16:51:10.238Z,10.73
2023-02-11T16:52:33.707Z,12.88
2023-02-11T16:53:57.106Z,17.00
2023-02-11T16:55:21.978Z,10.50
2023-02-11T16:56:46.243Z,8.70
2023-02-11T16:58:09.957Z,13.32
2023-02-11T16:59:33.379Z,9.07
2023-02-11T17:00:58.783Z,8.75
2023-02-11T17:02:25.982Z,8.02
2023-02-11T17:03:51.366Z,8.77
2023-02-11T17:05:19.254Z,8.25
2023-02-11T17:06:42.774Z,8.40
2023-02-11T17:08:06.773Z,8.68
2023-02-11T17:09:31.230Z,11.68
2023-02-11T17:10:54.855Z,11.35
2023-02-11T17:12:18.335Z,11.18
2023-02-11T17:13:42.131Z,12.63
2023-02-11T17:15:07.606Z,12.23
2023-02-11T17:16:32.525Z,8.57
2023-02-11T17:17:56.021Z,12.50
2023-02-11T17:19:22.085Z,7.93
2023-02-11T17:20:45.622Z,10.63
2023-02-11T17:22:09.924Z,6.80
2023-02-11T17:23:33.618Z,8.80
2023-02-11T17:24:57.209Z,8.15
2023-02-11T17:26:20.839Z,11.40
2023-02-11T17:27:44.303Z,7.85
2023-02-11T17:29:10.960Z,9.48
2023-02-11T17:30:34.514Z,10.38
2023-02-11T17:31:57.178Z,8.65
2023-02-11T17:33:20.768Z,9.90
2023-02-11T17:34:45.936Z,7.95
2023-02-11T17:36:11.224Z,9.95
2023-02-11T17:37:34.700Z,6.25
2023-02-11T17:38:58.317Z,8.45
2023-02-11T17:40:22.966Z,10.93
2023-02-11T17:41:46.445Z,7.97
2023-02-11T17:43:09.981Z,8.15
2023-02-11T17:44:33.416Z,9.60
2023-02-11T17:45:56.955Z,6.80
2023-02-11T17:47:20.477Z,7.40
2023-02-11T17:48:43.870Z,6.28
2023-02-11T17:50:10.076Z,8.80
2023-02-11T17:51:35.480Z,8.57
2023-02-11T17:52:58.903Z,8.63
2023-02-11T17:54:22.483Z,8.80
2023-02-11T17:55:52.818Z,15.00
2023-02-11T17:57:17.529Z,10.07
2023-02-11T17:58:41.166Z,6.30
2023-02-11T18:00:04.959Z,7.57
2023-02-11T18:01:29.111Z,6.85
2023-02-11T18:02:52.741Z,9.73
2023-02-11T18:04:18.183Z,7.07
2023-02-11T18:05:43.214Z,6.88
2023-02-11T18:07:07.037Z,7.72
2023-02-11T18:08:33.284Z,7.97
2023-02-11T18:09:56.944Z,6.05
2023-02-11T18:11:21.996Z,4.43
2023-02-11T18:12:45.654Z,10.88
2023-02-11T18:14:09.479Z,5.05
2023-02-11T18:15:34.132Z,7.13
2023-02-11T18:16:57.787Z,6.25
2023-02-11T18:18:20.358Z,10.52
2023-02-11T18:19:43.852Z,7.57
2023-02-11T18:21:09.319Z,7.15
2023-02-11T18:22:38.452Z,10.40
2023-02-11T18:24:06.543Z,6.85
2023-02-11T18:25:31.022Z,9.02
2023-02-11T18:26:54.564Z,9.15
2023-02-11T18:28:19.161Z,6.38
2023-02-11T18:29:42.797Z,6.85
2023-02-11T18:31:07.303Z,6.63
2023-02-11T18:32:30.968Z,6.35
2023-02-11T18:33:55.077Z,7.88
2023-02-11T18:35:20.051Z,7.55
2023-02-11T18:36:45.733Z,7.88
2023-02-11T18:38:09.525Z,6.20
2023-02-11T18:39:33.151Z,7.57
2023-02-11T18:40:57.939Z,7.45
2023-02-11T18:42:21.413Z,6.65
2023-02-11T18:43:44.896Z,8.27
2023-02-11T18:45:10.506Z,6.82
2023-02-11T18:46:33.991Z,10.60
2023-02-11T18:47:57.418Z,9.02